createdAt,value
2018-09-21T00:00:04.922Z,26
2018-09-21T00:02:04.871Z,26.1
2018-09-21T00:04:05.097Z,26.1
2018-09-21T00:06:04.780Z,26.1
2018-09-21T00:08:05.474Z,26.1
2018-09-21T00:10:05.288Z,26.1
2018-09-21T00:12:05.071Z,26.1
2018-09-21T00:14:09.845Z,26
2018-09-21T00:16:08.118Z,26
2018-09-21T00:18:05.014Z,26
2018-09-21T00:20:15.075Z,26
2018-09-21T00:22:12.865Z,26
2018-09-21T00:24:05.546Z,26
2018-09-21T00:26:05.271Z,26
2018-09-21T00:28:05.130Z,26
2018-09-21T00:30:05.305Z,26
2018-09-21T00:32:04.980Z,26
2018-09-21T00:34:04.938Z,26
2018-09-21T00:36:04.666Z,26
2018-09-21T00:38:05.628Z,26
2018-09-21T00:40:10.366Z,26
2018-09-21T00:42:05.024Z,26
2018-09-21T00:44:04.724Z,26
2018-09-21T00:46:05.459Z,26
2018-09-21T00:48:05.202Z,26
2018-09-21T00:50:05.399Z,26
2018-09-21T00:52:05.054Z,26
2018-09-21T00:54:04.717Z,25.9
2018-09-21T00:56:08.018Z,26
2018-09-21T00:58:04.714Z,26
2018-09-21T01:00:07.912Z,26
2018-09-21T01:02:05.148Z,26
2018-09-21T01:04:04.808Z,26
2018-09-21T01:06:05.569Z,26
2018-09-21T01:08:07.791Z,26
2018-09-21T01:10:05.449Z,26
2018-09-21T01:12:05.135Z,26
2018-09-21T01:14:07.378Z,26
2018-09-21T01:16:05.117Z,26
2018-09-21T01:18:05.522Z,26
2018-09-21T01:20:05.429Z,26
2018-09-21T01:22:05.095Z,26
2018-09-21T01:24:05.479Z,26
2018-09-21T01:26:04.702Z,26
2018-09-21T01:28:05.441Z,26
2018-09-21T01:30:05.161Z,26
2018-09-21T01:32:04.879Z,26
2018-09-21T01:34:08.145Z,26
2018-09-21T01:36:07.411Z,25.9
2018-09-21T01:38:07.703Z,25.9
2018-09-21T01:40:05.456Z,25.9
2018-09-21T01:42:07.943Z,25.9
2018-09-21T01:44:07.179Z,25.9
2018-09-21T01:46:05.387Z,25.9
2018-09-21T01:48:05.149Z,25.9
2018-09-21T01:50:04.880Z,25.9
2018-09-21T01:52:05.593Z,26
2018-09-21T01:54:04.894Z,26
2018-09-21T01:56:05.149Z,26
2018-09-21T01:58:04.861Z,26
2018-09-21T02:00:05.555Z,25.9
2018-09-21T02:02:04.851Z,25.9
2018-09-21T02:04:05.541Z,26
2018-09-21T02:06:05.245Z,26
2018-09-21T02:08:05.537Z,25.9
2018-09-21T02:10:10.293Z,25.9
2018-09-21T02:12:05.027Z,25.9
2018-09-21T02:14:05.510Z,26
2018-09-21T02:16:04.760Z,26
2018-09-21T02:18:19.870Z,26
2018-09-21T02:20:04.678Z,25.9
2018-09-21T02:22:05.386Z,26
2018-09-21T02:24:05.088Z,26
2018-09-21T02:26:04.832Z,26
2018-09-21T02:28:05.593Z,25.9
2018-09-21T02:30:05.312Z,26
2018-09-21T02:32:05.207Z,26
2018-09-21T02:34:04.952Z,25.9
2018-09-21T02:36:04.636Z,25.9
2018-09-21T02:38:05.420Z,25.9
2018-09-21T02:40:05.159Z,25.9
2018-09-21T02:42:05.497Z,25.9
2018-09-21T02:44:05.224Z,25.9
2018-09-21T02:46:04.955Z,26
2018-09-21T02:48:07.213Z,26
2018-09-21T02:50:05.452Z,25.9
2018-09-21T02:52:05.246Z,25.9
2018-09-21T02:54:04.964Z,25.9
2018-09-21T02:56:04.643Z,25.9
2018-09-21T02:58:05.410Z,25.9
2018-09-21T03:00:04.670Z,25.9
2018-09-21T03:02:05.385Z,25.9
2018-09-21T03:04:05.640Z,25.9
2018-09-21T03:06:10.443Z,25.9
2018-09-21T03:08:05.134Z,25.9
2018-09-21T03:10:09.807Z,25.9
2018-09-21T03:12:05.533Z,25.9
2018-09-21T03:14:10.297Z,25.9
2018-09-21T03:16:05.099Z,25.9
2018-09-21T03:18:05.042Z,25.9
2018-09-21T03:20:07.307Z,25.9
2018-09-21T03:22:05.583Z,25.9
2018-09-21T03:24:04.794Z,25.9
2018-09-21T03:26:05.510Z,25.9
2018-09-21T03:28:07.761Z,25.9
2018-09-21T03:30:05.463Z,25.9
2018-09-21T03:32:05.175Z,25.9
2018-09-21T03:34:05.501Z,25.9
2018-09-21T03:36:07.231Z,25.9
2018-09-21T03:38:05.475Z,25.9
2018-09-21T03:40:05.194Z,25.9
2018-09-21T03:42:07.442Z,25.9
2018-09-21T03:44:05.154Z,25.9
2018-09-21T03:46:04.890Z,25.9
2018-09-21T03:48:07.171Z,25.9
2018-09-21T03:50:07.405Z,25.9
2018-09-21T03:52:05.155Z,25.9
2018-09-21T03:54:04.890Z,25.9
2018-09-21T03:56:05.596Z,25.9
2018-09-21T03:58:07.893Z,25.9
2018-09-21T04:00:05.644Z,25.9
2018-09-21T04:02:05.416Z,25.9
2018-09-21T04:04:07.642Z,25.8
2018-09-21T04:06:05.383Z,25.8
2018-09-21T04:08:05.052Z,25.8
2018-09-21T04:10:04.759Z,25.8
2018-09-21T04:12:04.985Z,25.8
2018-09-21T04:14:04.746Z,25.7
2018-09-21T04:16:05.501Z,25.8
2018-09-21T04:18:05.374Z,25.8
2018-09-21T04:20:05.101Z,25.8
2018-09-21T04:22:04.789Z,25.9
2018-09-21T04:24:05.119Z,25.9
2018-09-21T04:26:04.905Z,25.8
2018-09-21T04:28:05.623Z,25.8
2018-09-21T04:30:05.327Z,25.7
2018-09-21T04:32:05.060Z,25.7
2018-09-21T04:34:04.764Z,25.7
2018-09-21T04:36:07.037Z,25.6
2018-09-21T04:38:07.709Z,25.6
2018-09-21T04:40:04.854Z,25.7
2018-09-21T04:42:10.165Z,25.8
2018-09-21T04:44:07.379Z,25.8
2018-09-21T04:46:12.861Z,25.8
2018-09-21T04:48:08.071Z,25.8
2018-09-21T04:50:06.741Z,25.8
2018-09-21T04:52:05.421Z,25.8
2018-09-21T04:54:05.334Z,25.8
2018-09-21T04:56:05.018Z,25.8
2018-09-21T04:58:07.317Z,25.8
2018-09-21T05:00:05.077Z,25.8
2018-09-21T05:02:10.544Z,25.8
2018-09-21T05:04:05.275Z,25.8
2018-09-21T05:06:05.500Z,25.8
2018-09-21T05:08:05.449Z,25.8
2018-09-21T05:10:07.762Z,25.7
2018-09-21T05:12:05.396Z,25.7
2018-09-21T05:14:11.106Z,25.7
2018-09-21T05:16:04.772Z,25.7
2018-09-21T05:18:04.908Z,25.6
2018-09-21T05:20:06.061Z,25.7
2018-09-21T05:22:07.323Z,25.6
2018-09-21T05:24:05.077Z,25.6
2018-09-21T05:26:07.279Z,25.6
2018-09-21T05:28:04.945Z,25.6
2018-09-21T05:30:07.291Z,25.6
2018-09-21T05:32:05.011Z,25.6
2018-09-21T05:34:04.731Z,25.6
2018-09-21T05:36:04.749Z,25.6
2018-09-21T05:38:07.960Z,25.5
2018-09-21T05:40:04.692Z,25.5
2018-09-21T05:42:05.390Z,25.5
2018-09-21T05:44:09.762Z,25.5
2018-09-21T05:46:05.438Z,25.5
2018-09-21T05:48:05.122Z,25.5
2018-09-21T05:50:04.987Z,25.4
2018-09-21T05:52:04.710Z,25.4
2018-09-21T05:54:05.419Z,25.5
2018-09-21T05:56:05.219Z,25.4
2018-09-21T05:58:05.265Z,25.5
2018-09-21T06:00:07.575Z,25.4
2018-09-21T06:02:05.410Z,25.4
2018-09-21T06:04:08.013Z,25.5
2018-09-21T06:06:05.178Z,25.5
2018-09-21T06:08:04.871Z,25.4
2018-09-21T06:10:04.904Z,25.4
2018-09-21T06:12:05.608Z,25.3
2018-09-21T06:14:07.492Z,25.3
2018-09-21T06:16:04.709Z,25.3
2018-09-21T06:18:10.623Z,25.2
2018-09-21T06:20:12.612Z,25.2
2018-09-21T06:22:05.428Z,25.2
2018-09-21T06:24:05.101Z,25.2
2018-09-21T06:26:04.832Z,25.3
2018-09-21T06:28:08.138Z,25.3
2018-09-21T06:30:04.847Z,25.2
2018-09-21T06:32:05.600Z,25.3
2018-09-21T06:34:08.008Z,25.2
2018-09-21T06:36:04.900Z,25.2
2018-09-21T06:38:07.718Z,25.3
2018-09-21T06:40:05.398Z,25.3
2018-09-21T06:42:07.623Z,25.3
2018-09-21T06:44:06.379Z,25.3
2018-09-21T06:46:05.092Z,25.4
2018-09-21T06:48:04.872Z,25.4
2018-09-21T06:50:05.584Z,25.4
2018-09-21T06:52:05.369Z,25.4
2018-09-21T06:54:05.272Z,25.4
2018-09-21T06:56:05.035Z,25.5
2018-09-21T06:58:05.022Z,25.4
2018-09-21T07:00:04.808Z,25.3
2018-09-21T07:02:05.674Z,25.3
2018-09-21T07:04:07.306Z,25.3
2018-09-21T07:06:05.232Z,25.3
2018-09-21T07:08:04.897Z,25.3
2018-09-21T07:10:10.755Z,25.3
2018-09-21T07:12:05.431Z,25.3
2018-09-21T07:14:04.633Z,25.3
2018-09-21T07:16:08.134Z,25.3
2018-09-21T07:18:05.094Z,25.3
2018-09-21T07:20:04.915Z,25.3
2018-09-21T07:22:04.854Z,25.4
2018-09-21T07:24:05.577Z,25.4
2018-09-21T07:26:04.968Z,25.4
2018-09-21T07:28:05.191Z,25.4
2018-09-21T07:30:07.395Z,25.4
2018-09-21T07:32:07.581Z,25.4
2018-09-21T07:34:07.781Z,25.5
2018-09-21T07:36:05.497Z,25.5
2018-09-21T07:38:10.272Z,25.5
2018-09-21T07:40:04.930Z,25.5
2018-09-21T07:42:05.595Z,25.5
2018-09-21T07:44:07.903Z,25.6
2018-09-21T07:46:04.708Z,25.6
2018-09-21T07:48:05.465Z,25.7
2018-09-21T07:50:04.777Z,25.7
2018-09-21T07:52:05.592Z,25.7
2018-09-21T07:54:04.910Z,25.7
2018-09-21T07:56:05.642Z,25.7
2018-09-21T07:58:05.365Z,25.7
2018-09-21T08:00:05.033Z,25.7
2018-09-21T08:02:04.708Z,25.7
2018-09-21T08:04:05.406Z,25.7
2018-09-21T08:06:05.112Z,25.7
2018-09-21T08:08:04.872Z,25.8
2018-09-21T08:10:04.816Z,25.7
2018-09-21T08:12:05.536Z,25.7
2018-09-21T08:14:05.242Z,25.7
2018-09-21T08:16:05.108Z,25.8
2018-09-21T08:18:07.579Z,25.8
2018-09-21T08:20:05.344Z,25.8
2018-09-21T08:22:05.029Z,25.8
2018-09-21T08:24:04.722Z,25.7
2018-09-21T08:26:05.429Z,25.7
2018-09-21T08:28:05.130Z,25.7
2018-09-21T08:30:04.915Z,25.7
2018-09-21T08:32:08.159Z,25.5
2018-09-21T08:34:13.231Z,25.5
2018-09-21T08:36:10.015Z,25.5
2018-09-21T08:38:04.678Z,25.5
2018-09-21T08:40:04.883Z,25.5
2018-09-21T08:42:04.652Z,25.5
2018-09-21T08:44:05.363Z,25.5
2018-09-21T08:46:05.614Z,25.5
2018-09-21T08:48:04.912Z,25.5
2018-09-21T08:50:05.634Z,25.6
2018-09-21T08:52:05.362Z,25.6
2018-09-21T08:54:05.280Z,25.5
2018-09-21T08:56:05.095Z,25.5
2018-09-21T08:58:07.392Z,25.6
2018-09-21T09:00:07.698Z,25.6
2018-09-21T09:02:07.960Z,25.6
2018-09-21T09:04:04.836Z,25.6
2018-09-21T09:06:08.126Z,25.6
2018-09-21T09:08:04.827Z,25.6
2018-09-21T09:10:07.301Z,25.6
2018-09-21T09:12:12.624Z,25.5
2018-09-21T09:14:05.391Z,25.6
2018-09-21T09:16:06.089Z,25.4
2018-09-21T09:18:05.009Z,25.5
2018-09-21T09:20:05.238Z,25.4
2018-09-21T09:22:08.426Z,25.5
2018-09-21T09:24:05.316Z,25.4
2018-09-21T09:26:07.534Z,25.5
2018-09-21T09:28:05.231Z,25.5
2018-09-21T09:30:04.976Z,25.5
2018-09-21T09:32:05.045Z,25.5
2018-09-21T09:34:07.299Z,25.6
2018-09-21T09:36:05.051Z,25.6
2018-09-21T09:38:04.746Z,25.6
2018-09-21T09:40:12.228Z,25.6
2018-09-21T09:42:10.054Z,25.6
2018-09-21T09:44:04.795Z,25.6
2018-09-21T09:46:07.533Z,25.8
2018-09-21T09:48:05.159Z,25.8
2018-09-21T09:50:05.379Z,25.7
2018-09-21T09:52:07.592Z,25.7
2018-09-21T09:54:05.328Z,25.7
2018-09-21T09:56:05.003Z,25.7
2018-09-21T09:58:05.204Z,25.8
2018-09-21T10:00:04.929Z,25.8
2018-09-21T10:02:04.848Z,25.8
2018-09-21T10:04:13.232Z,25.8
2018-09-21T10:06:10.511Z,25.8
2018-09-21T10:08:05.170Z,25.8
2018-09-21T10:10:04.850Z,25.8
2018-09-21T10:12:05.187Z,25.8
2018-09-21T10:14:07.534Z,25.9
2018-09-21T10:16:05.279Z,25.9
2018-09-21T10:18:05.283Z,25.9
2018-09-21T10:20:05.046Z,25.9
2018-09-21T10:22:04.729Z,25.8
2018-09-21T10:24:05.471Z,25.8
2018-09-21T10:26:07.710Z,25.8
2018-09-21T10:28:06.121Z,25.8
2018-09-21T10:30:05.633Z,25.8
2018-09-21T10:32:05.485Z,25.9
2018-09-21T10:34:05.283Z,25.8
2018-09-21T10:36:05.050Z,25.8
2018-09-21T10:38:04.850Z,25.8
2018-09-21T10:40:05.225Z,25.8
2018-09-21T10:42:05.429Z,25.8
2018-09-21T10:44:05.257Z,25.8
2018-09-21T10:46:05.010Z,25.8
2018-09-21T10:48:05.514Z,25.8
2018-09-21T10:50:05.914Z,25.8
2018-09-21T10:52:05.167Z,25.8
2018-09-21T10:54:04.857Z,25.8
2018-09-21T10:56:04.824Z,25.8
2018-09-21T10:58:04.694Z,25.8
2018-09-21T11:00:05.377Z,25.7
2018-09-21T11:02:05.177Z,25.7
2018-09-21T11:04:04.874Z,25.7
2018-09-21T11:06:07.261Z,25.7
2018-09-21T11:08:05.070Z,25.8
2018-09-21T11:10:07.241Z,25.7
2018-09-21T11:12:05.004Z,25.7
2018-09-21T11:14:09.704Z,25.7
2018-09-21T11:16:04.961Z,25.7
2018-09-21T11:18:04.883Z,25.7
2018-09-21T11:20:04.916Z,25.7
2018-09-21T11:22:14.950Z,25.7
2018-09-21T11:24:04.681Z,25.7
2018-09-21T11:26:05.433Z,25.7
2018-09-21T11:28:04.663Z,25.6
2018-09-21T11:30:05.495Z,25.6
2018-09-21T11:32:05.205Z,25.6
2018-09-21T11:34:07.460Z,25.6
2018-09-21T11:36:10.310Z,25.6
2018-09-21T11:38:04.998Z,25.6
2018-09-21T11:40:04.675Z,25.6
2018-09-21T11:42:07.890Z,25.6
2018-09-21T11:44:07.232Z,25.6
2018-09-21T11:46:08.560Z,25.6
2018-09-21T11:48:05.503Z,25.6
2018-09-21T11:50:05.337Z,25.6
2018-09-21T11:52:05.109Z,25.6
2018-09-21T11:54:04.813Z,25.6
2018-09-21T11:56:13.158Z,25.6
2018-09-21T11:58:04.819Z,25.6
2018-09-21T12:00:05.521Z,25.5
2018-09-21T12:02:05.249Z,25.5
2018-09-21T12:04:10.513Z,25.5
2018-09-21T12:06:07.842Z,25.5
2018-09-21T12:08:13.150Z,25.5
2018-09-21T12:10:04.877Z,25.5
2018-09-21T12:12:05.171Z,25.5
2018-09-21T12:14:04.854Z,25.5
2018-09-21T12:16:05.674Z,25.5
2018-09-21T12:18:07.434Z,25.6
2018-09-21T12:20:05.693Z,25.5
2018-09-21T12:22:05.401Z,25.5
2018-09-21T12:24:08.217Z,25.5
2018-09-21T12:26:07.446Z,25.4
2018-09-21T12:28:07.605Z,25.4
2018-09-21T12:30:07.892Z,25.5
2018-09-21T12:32:04.739Z,25.5
2018-09-21T12:34:05.443Z,25.4
2018-09-21T12:36:05.159Z,25.4
2018-09-21T12:38:05.534Z,25.5
2018-09-21T12:40:07.805Z,25.5
2018-09-21T12:42:05.591Z,25.5
2018-09-21T12:44:05.302Z,25.4
2018-09-21T12:46:04.958Z,25.5
2018-09-21T12:48:07.181Z,25.5
2018-09-21T12:50:07.370Z,25.4
2018-09-21T12:52:05.239Z,25.4
2018-09-21T12:54:17.546Z,25.4
2018-09-21T12:56:05.265Z,25.5
2018-09-21T12:58:05.144Z,25.4
2018-09-21T13:00:07.619Z,25.5
2018-09-21T13:02:07.873Z,25.4
2018-09-21T13:04:04.751Z,25.5
2018-09-21T13:06:05.511Z,25.5
2018-09-21T13:08:08.215Z,25.5
2018-09-21T13:10:05.019Z,25.4
2018-09-21T13:12:04.751Z,25.5
2018-09-21T13:14:07.991Z,25.4
2018-09-21T13:16:07.494Z,25.4
2018-09-21T13:18:07.939Z,25.4
2018-09-21T13:20:04.677Z,25.4
2018-09-21T13:22:05.088Z,25.4
2018-09-21T13:24:04.814Z,25.4
2018-09-21T13:26:05.006Z,25.4
2018-09-21T13:28:04.782Z,25.4
2018-09-21T13:30:08.004Z,25.4
2018-09-21T13:32:04.985Z,25.4
2018-09-21T13:34:04.771Z,25.4
2018-09-21T13:36:05.473Z,25.4
2018-09-21T13:38:05.178Z,25.5
2018-09-21T13:40:04.939Z,25.5
2018-09-21T13:42:09.881Z,25.4
2018-09-21T13:44:04.654Z,25.4
2018-09-21T13:46:04.883Z,25.4
2018-09-21T13:48:10.614Z,25.4
2018-09-21T13:50:04.858Z,25.4
2018-09-21T13:52:05.586Z,25.4
2018-09-21T13:54:05.349Z,25.4
2018-09-21T13:56:05.133Z,25.4
2018-09-21T13:58:04.878Z,25.4
2018-09-21T14:00:10.122Z,25.4
2018-09-21T14:02:12.514Z,25.4
2018-09-21T14:04:12.803Z,25.4
2018-09-21T14:06:05.514Z,25.4
2018-09-21T14:08:07.757Z,25.3
2018-09-21T14:10:05.461Z,25.3
2018-09-21T14:12:09.848Z,25.3
2018-09-21T14:14:05.537Z,25.3
2018-09-21T14:16:04.908Z,25.3
2018-09-21T14:18:05.323Z,25.3
2018-09-21T14:20:17.717Z,25.4
2018-09-21T14:22:10.008Z,25.4
2018-09-21T14:24:04.944Z,25.4
2018-09-21T14:26:04.664Z,25.4
2018-09-21T14:28:04.939Z,25.4
2018-09-21T14:30:07.878Z,25.4
2018-09-21T14:32:08.301Z,25.4
2018-09-21T14:34:05.295Z,25.4
2018-09-21T14:36:07.533Z,25.3
2018-09-21T14:38:12.866Z,25.3
2018-09-21T14:40:05.204Z,25.3
2018-09-21T14:42:04.934Z,25.3
2018-09-21T14:44:04.637Z,25.3
2018-09-21T14:46:05.317Z,25.3
2018-09-21T14:48:04.988Z,25.4
2018-09-21T14:50:07.253Z,25.4
2018-09-21T14:52:07.474Z,25.4
2018-09-21T14:54:05.225Z,25.3
2018-09-21T14:56:05.453Z,25.4
2018-09-21T14:58:10.448Z,25.4
2018-09-21T15:00:04.911Z,25.4
2018-09-21T15:02:05.674Z,25.4
2018-09-21T15:04:07.917Z,25.3
2018-09-21T15:06:07.188Z,25.4
2018-09-21T15:08:05.022Z,25.4
2018-09-21T15:10:09.807Z,25.3
2018-09-21T15:12:07.564Z,25.3
2018-09-21T15:14:10.287Z,25.4
2018-09-21T15:16:04.985Z,25.3
2018-09-21T15:18:07.346Z,25.3
2018-09-21T15:20:05.049Z,25.3
2018-09-21T15:22:07.340Z,25.3
2018-09-21T15:24:10.538Z,25.3
2018-09-21T15:26:05.277Z,25.3
2018-09-21T15:28:04.938Z,25.4
2018-09-21T15:30:05.709Z,25.3
2018-09-21T15:32:05.488Z,25.4
2018-09-21T15:34:05.145Z,25.4
2018-09-21T15:36:04.788Z,25.4
2018-09-21T15:38:05.476Z,25.4
2018-09-21T15:40:05.205Z,25.4
2018-09-21T15:42:04.919Z,25.4
2018-09-21T15:44:05.101Z,25.4
2018-09-21T15:46:07.820Z,25.4
2018-09-21T15:48:10.108Z,25.4
2018-09-21T15:50:04.891Z,25.4
2018-09-21T15:52:05.150Z,25.4
2018-09-21T15:54:04.848Z,25.3
2018-09-21T15:56:10.710Z,25.2
2018-09-21T15:58:05.457Z,25.2
2018-09-21T16:00:07.690Z,25.2
2018-09-21T16:02:05.359Z,25.2
2018-09-21T16:04:05.644Z,25.2
2018-09-21T16:06:05.568Z,25.2
2018-09-21T16:08:04.696Z,25.2
2018-09-21T16:10:13.001Z,25.3
2018-09-21T16:12:07.311Z,25.2
2018-09-21T16:14:10.120Z,25.3
2018-09-21T16:16:07.574Z,25.3
2018-09-21T16:18:05.513Z,25.3
2018-09-21T16:20:10.289Z,25.4
2018-09-21T16:22:05.533Z,25.4
2018-09-21T16:24:05.257Z,25.4
2018-09-21T16:26:05.039Z,25.3
2018-09-21T16:28:07.728Z,25.3
2018-09-21T16:30:05.434Z,25.3
2018-09-21T16:32:10.180Z,25.4
2018-09-21T16:34:04.877Z,25.4
2018-09-21T16:36:05.615Z,25.3
2018-09-21T16:38:05.614Z,25.4
2018-09-21T16:40:07.427Z,25.3
2018-09-21T16:42:05.120Z,25.3
2018-09-21T16:44:04.832Z,25.3
2018-09-21T16:46:05.510Z,25.4
2018-09-21T16:48:07.787Z,25.4
2018-09-21T16:50:05.542Z,25.4
2018-09-21T16:52:05.269Z,25.4
2018-09-21T16:54:04.970Z,25.4
2018-09-21T16:56:04.645Z,25.4
2018-09-21T16:58:12.885Z,25.3
2018-09-21T17:00:05.086Z,25.4
2018-09-21T17:02:04.837Z,25.3
2018-09-21T17:04:05.557Z,25.3
2018-09-21T17:06:05.289Z,25.3
2018-09-21T17:08:07.540Z,25.3
2018-09-21T17:10:04.782Z,25.3
2018-09-21T17:12:07.985Z,25.3
2018-09-21T17:14:04.722Z,25.3
2018-09-21T17:16:05.467Z,25.3
2018-09-21T17:18:05.357Z,25.3
2018-09-21T17:20:05.688Z,25.3
2018-09-21T17:22:05.630Z,25.3
2018-09-21T17:24:05.342Z,25.3
2018-09-21T17:26:05.029Z,25.3
2018-09-21T17:28:07.263Z,25.2
2018-09-21T17:30:04.941Z,25.3
2018-09-21T17:32:04.943Z,25.3
2018-09-21T17:34:07.534Z,25.2
2018-09-21T17:36:05.265Z,25.2
2018-09-21T17:38:07.536Z,25.2
2018-09-21T17:40:04.804Z,25.2
2018-09-21T17:42:05.509Z,25.2
2018-09-21T17:44:04.787Z,25.2
2018-09-21T17:46:05.480Z,25.2
2018-09-21T17:48:05.162Z,25.2
2018-09-21T17:50:04.852Z,25.2
2018-09-21T17:52:07.607Z,25.2
2018-09-21T17:54:05.289Z,25.2
2018-09-21T17:56:04.966Z,25.2
2018-09-21T17:58:07.690Z,25.2
2018-09-21T18:00:05.342Z,25.2
2018-09-21T18:02:10.636Z,25.1
2018-09-21T18:04:04.905Z,25.2
2018-09-21T18:06:05.597Z,25.1
2018-09-21T18:08:05.326Z,25.1
2018-09-21T18:10:05.069Z,25.2
2018-09-21T18:12:04.817Z,25.1
2018-09-21T18:14:05.615Z,25.1
2018-09-21T18:16:04.972Z,25.1
2018-09-21T18:18:07.808Z,25.1
2018-09-21T18:20:05.553Z,25.1
2018-09-21T18:22:05.264Z,25.1
2018-09-21T18:24:04.920Z,25.1
2018-09-21T18:26:08.201Z,25.1
2018-09-21T18:28:04.742Z,25.1
2018-09-21T18:30:05.551Z,25.1
2018-09-21T18:32:07.796Z,25.1
2018-09-21T18:34:05.105Z,25.1
2018-09-21T18:36:06.382Z,25.1
2018-09-21T18:38:05.200Z,25.1
2018-09-21T18:40:04.908Z,25.1
2018-09-21T18:42:05.161Z,25.1
2018-09-21T18:44:07.483Z,25.1
2018-09-21T18:46:05.169Z,25.1
2018-09-21T18:48:07.356Z,25.1
2018-09-21T18:50:05.084Z,25.1
2018-09-21T18:52:04.869Z,25.1
2018-09-21T18:54:04.603Z,25.1
2018-09-21T18:56:04.798Z,25.1
2018-09-21T18:58:13.040Z,25.1
2018-09-21T19:00:04.821Z,25.1
2018-09-21T19:02:05.567Z,25.1
2018-09-21T19:04:05.371Z,25.1
2018-09-21T19:06:10.387Z,25.1
2018-09-21T19:08:05.213Z,25.1
2018-09-21T19:10:09.981Z,25.1
2018-09-21T19:12:04.757Z,25.1
2018-09-21T19:14:05.460Z,25.1
2018-09-21T19:16:05.175Z,25.1
2018-09-21T19:18:05.100Z,25.1
2018-09-21T19:20:04.819Z,25.1
2018-09-21T19:22:05.511Z,25.1
2018-09-21T19:24:07.877Z,25.1
2018-09-21T19:26:05.583Z,25.1
2018-09-21T19:28:05.309Z,25.1
2018-09-21T19:30:05.628Z,25.1
2018-09-21T19:32:05.376Z,25.1
2018-09-21T19:34:05.102Z,25.1
2018-09-21T19:36:05.385Z,25.1
2018-09-21T19:38:05.165Z,25.1
2018-09-21T19:40:04.870Z,25.1
2018-09-21T19:42:05.580Z,25
2018-09-21T19:44:05.328Z,25
2018-09-21T19:46:05.031Z,25.1
2018-09-21T19:48:04.794Z,25
2018-09-21T19:50:05.617Z,25
2018-09-21T19:52:04.815Z,25
2018-09-21T19:54:05.494Z,25.1
2018-09-21T19:56:05.184Z,25.1
2018-09-21T19:58:04.876Z,25.1
2018-09-21T20:00:05.090Z,25.1
2018-09-21T20:02:07.333Z,25
2018-09-21T20:04:06.037Z,25
2018-09-21T20:06:04.712Z,25
2018-09-21T20:08:05.428Z,25
2018-09-21T20:10:05.112Z,25
2018-09-21T20:12:04.877Z,25
2018-09-21T20:14:13.151Z,25
2018-09-21T20:16:04.800Z,25
2018-09-21T20:18:04.683Z,25
2018-09-21T20:20:04.954Z,25
2018-09-21T20:22:07.729Z,25
2018-09-21T20:24:05.431Z,25
2018-09-21T20:26:05.161Z,25
2018-09-21T20:28:05.403Z,25
2018-09-21T20:30:07.648Z,25
2018-09-21T20:32:05.372Z,25
2018-09-21T20:34:05.047Z,25
2018-09-21T20:36:04.764Z,25
2018-09-21T20:38:08.026Z,25
2018-09-21T20:40:04.756Z,24.9
2018-09-21T20:42:07.971Z,25
2018-09-21T20:44:04.763Z,25
2018-09-21T20:46:05.518Z,25
2018-09-21T20:48:05.283Z,25
2018-09-21T20:50:04.980Z,25
2018-09-21T20:52:04.737Z,25
2018-09-21T20:54:04.936Z,24.9
2018-09-21T20:56:04.633Z,24.9
2018-09-21T20:58:08.085Z,24.9
2018-09-21T21:00:04.735Z,25
2018-09-21T21:02:10.454Z,24.9
2018-09-21T21:04:07.661Z,24.9
2018-09-21T21:06:05.359Z,24.9
2018-09-21T21:08:05.063Z,24.9
2018-09-21T21:10:04.786Z,24.9
2018-09-21T21:12:05.547Z,24.9
2018-09-21T21:14:05.308Z,24.9
2018-09-21T21:16:04.997Z,24.9
2018-09-21T21:18:04.914Z,24.9
2018-09-21T21:20:04.660Z,24.9
2018-09-21T21:22:05.431Z,24.9
2018-09-21T21:24:05.583Z,24.9
2018-09-21T21:26:07.835Z,24.9
2018-09-21T21:28:08.074Z,24.9
2018-09-21T21:30:07.283Z,24.9
2018-09-21T21:32:12.606Z,24.9
2018-09-21T21:34:05.260Z,24.9
2018-09-21T21:36:15.594Z,24.9
2018-09-21T21:38:04.894Z,24.9
2018-09-21T21:40:05.627Z,24.9
2018-09-21T21:42:05.460Z,24.9
2018-09-21T21:44:05.531Z,24.9
2018-09-21T21:46:07.814Z,24.9
2018-09-21T21:48:05.036Z,24.9
2018-09-21T21:50:05.042Z,24.9
2018-09-21T21:52:04.776Z,24.9
2018-09-21T21:54:05.523Z,24.9
2018-09-21T21:56:04.835Z,24.8
2018-09-21T21:58:05.644Z,24.8
2018-09-21T22:00:06.308Z,24.8
2018-09-21T22:02:05.109Z,24.8
2018-09-21T22:04:07.368Z,24.8
2018-09-21T22:06:05.633Z,24.8
2018-09-21T22:08:07.898Z,24.8
2018-09-21T22:10:04.596Z,24.8
2018-09-21T22:12:07.392Z,24.8
2018-09-21T22:14:05.134Z,24.8
2018-09-21T22:16:07.946Z,24.8
2018-09-21T22:18:04.829Z,24.8
2018-09-21T22:20:05.806Z,24.8
2018-09-21T22:22:05.491Z,24.8
2018-09-21T22:24:05.196Z,24.8
2018-09-21T22:26:04.910Z,24.8
2018-09-21T22:28:09.720Z,24.8
2018-09-21T22:30:05.389Z,24.8
2018-09-21T22:32:05.103Z,24.8
2018-09-21T22:34:04.886Z,24.7
2018-09-21T22:36:05.100Z,24.8
2018-09-21T22:38:04.831Z,24.8
2018-09-21T22:40:05.524Z,24.8
2018-09-21T22:42:05.169Z,24.8
2018-09-21T22:44:05.155Z,24.8
2018-09-21T22:46:09.885Z,24.7
2018-09-21T22:48:05.636Z,24.8
2018-09-21T22:50:15.447Z,24.7
2018-09-21T22:52:05.151Z,24.7
2018-09-21T22:54:04.906Z,24.7
2018-09-21T22:56:10.868Z,24.7
2018-09-21T22:58:05.552Z,24.7
2018-09-21T23:00:08.035Z,24.7
2018-09-21T23:02:05.290Z,24.8
2018-09-21T23:04:04.978Z,24.8
2018-09-21T23:06:04.640Z,24.7
2018-09-21T23:08:10.356Z,24.7
2018-09-21T23:10:05.120Z,24.7
2018-09-21T23:12:10.100Z,24.7
2018-09-21T23:14:04.886Z,24.7
2018-09-21T23:16:05.537Z,24.7
2018-09-21T23:18:05.617Z,24.7
2018-09-21T23:20:05.441Z,24.7
2018-09-21T23:22:05.184Z,24.7
2018-09-21T23:24:05.081Z,24.7
2018-09-21T23:26:08.455Z,24.7
2018-09-21T23:28:05.577Z,24.7
2018-09-21T23:30:04.791Z,24.7
2018-09-21T23:32:05.589Z,24.7
2018-09-21T23:34:05.268Z,24.7
2018-09-21T23:36:07.495Z,24.7
2018-09-21T23:38:04.712Z,24.7
2018-09-21T23:40:05.461Z,24.7
2018-09-21T23:42:05.200Z,24.7
2018-09-21T23:44:04.951Z,24.7
2018-09-21T23:46:04.682Z,24.7
2018-09-21T23:48:04.937Z,24.7
2018-09-21T23:50:07.171Z,24.7
2018-09-21T23:52:04.805Z,24.7
2018-09-21T23:54:05.630Z,24.7
2018-09-21T23:56:05.357Z,24.7
2018-09-21T23:58:05.162Z,24.7
